Observations for Trim Market St
| Time | AQI | Temp °C | Hum % | Pres Pa | CO μg/m³ | H₂S μg/m³ | NO μg/m³ | NO₂ μg/m³ | O₃ μg/m³ | SO₂ μg/m³ | PM1 μg/m³ | PM2.5 μg/m³ | PM10 μg/m³ |
|---|---|---|---|---|---|---|---|---|---|---|---|---|---|
| Friday 21 August 2026 | |||||||||||||
| 10:15 | 2 | 22.4 | 42 | 63,853 | 0 | 11.62 | 1.68 | 46.24 | 147.09 | 0 | 0 | 2.27 | 2.5 |
| 10:14 | 2 | 22.5 | 42 | 63,979 | 0 | 13.23 | 1.75 | 101.08 | 69.1 | 0 | 0.71 | 3.34 | 4.34 |
| 10:12 | 2 | 22.7 | 41 | 64,400 | 0 | 9.48 | 1.08 | 12.36 | 191.91 | 0 | 0 | 2.33 | 2.56 |
| 10:09 | 2 | 23.3 | 39 | 64,948 | 0 | 5.28 | 0.91 | 8.96 | 129.34 | 0 | 0 | 2.38 | 2.67 |
| 10:08 | 2 | 23.5 | 39 | 65,113 | 0 | 3.4 | 0.8 | 8.61 | 138.07 | 0 | 0 | 2.39 | 2.66 |
| 10:07 | 2 | 23.7 | 38 | 65,203 | 0 | 5.57 | 0.9 | 10.77 | 188.12 | 0 | 0 | 2.42 | 2.66 |
| 10:03 | 2 | 24.6 | 37 | 65,382 | 0 | 6.23 | 0.79 | 11.91 | 181.11 | 0 | 0 | 2.49 | 2.57 |
| 09:54 | 2 | 27.5 | 34 | 65,659 | 0 | 0 | 0.97 | 11.13 | 78.06 | 0 | 0 | 2.61 | 2.87 |
| 09:53 | 2 | 27.7 | 34 | 65,696 | 0 | 0 | 0.99 | 11.67 | 77.18 | 0 | 0.71 | 3.69 | 4.06 |
| 09:52 | 2 | 28 | 34 | 65,715 | 0 | 0 | 1.1 | 17.31 | 84.3 | 0 | 0 | 2.62 | 2.88 |
| 09:51 | 2 | 28.2 | 33 | 65,732 | 0 | 0 | 1.21 | 17.22 | 123.58 | 0 | 0 | 2.63 | 3.3 |
| 09:50 | 2 | 28.4 | 33 | 65,752 | 0 | 0 | 1.25 | 18.23 | 148.6 | 0 | 0 | 2.64 | 2.91 |
| 09:49 | 2 | 28.6 | 33 | 65,780 | 0 | 0 | 1.27 | 12.79 | 77.02 | 0 | 0 | 3.73 | 4.11 |
| 09:48 | 2 | 28.8 | 33 | 65,789 | 0 | 0 | 1.3 | 13.27 | 75.44 | 0 | 0 | 2.65 | 2.91 |
| 09:47 | 2 | 28.9 | 33 | 65,801 | 0 | 0 | 1.31 | 13.58 | 75.95 | 0 | 0 | 2.64 | 2.91 |
| 09:46 | 2 | 29.1 | 33 | 65,805 | 0 | 0 | 1.3 | 16 | 77.16 | 0 | 0 | 2.66 | 2.92 |
| 09:45 | 2 | 29.1 | 33 | 65,815 | 0 | 0 | 1.27 | 16.66 | 76.08 | 0 | 0 | 3.19 | 3.5 |
| 09:44 | 2 | 29.3 | 33 | 65,797 | 0 | 0 | 1.26 | 15.77 | 75.66 | 0 | 0 | 3.18 | 3.5 |
| 09:43 | 2 | 29.4 | 32 | 65,774 | 0 | 0 | 1.15 | 26.29 | 102.74 | 0 | 0 | 3.2 | 3.52 |
| 09:42 | 2 | 29.5 | 33 | 65,772 | 0 | 0 | 1.15 | 16.31 | 85.85 | 0 | 0 | 2.66 | 2.93 |